sensor_id;sensor_type;location;lat;lon;timestamp;P1;durP1;ratioP1;P2;durP2;ratioP2
21876;SDS011;11103;43.788;23.710;2023-04-07T00:00:19;26.97;;;17.17;;
21876;SDS011;11103;43.788;23.710;2023-04-07T00:02:45;22.73;;;16.67;;
21876;SDS011;11103;43.788;23.710;2023-04-07T00:05:11;24.07;;;17.50;;
21876;SDS011;11103;43.788;23.710;2023-04-07T00:07:36;25.87;;;17.23;;
21876;SDS011;11103;43.788;23.710;2023-04-07T00:10:02;22.90;;;17.13;;
21876;SDS011;11103;43.788;23.710;2023-04-07T00:12:27;25.17;;;17.33;;
21876;SDS011;11103;43.788;23.710;2023-04-07T00:14:53;23.67;;;16.13;;
21876;SDS011;11103;43.788;23.710;2023-04-07T00:17:18;24.17;;;17.20;;
21876;SDS011;11103;43.788;23.710;2023-04-07T00:19:44;25.83;;;16.73;;
21876;SDS011;11103;43.788;23.710;2023-04-07T00:22:09;22.03;;;16.20;;
21876;SDS011;11103;43.788;23.710;2023-04-07T00:24:35;25.83;;;17.53;;
21876;SDS011;11103;43.788;23.710;2023-04-07T00:27:00;23.27;;;17.60;;
21876;SDS011;11103;43.788;23.710;2023-04-07T00:29:26;31.63;;;18.73;;
21876;SDS011;11103;43.788;23.710;2023-04-07T00:31:51;24.17;;;17.17;;
21876;SDS011;11103;43.788;23.710;2023-04-07T00:34:17;24.93;;;16.27;;
21876;SDS011;11103;43.788;23.710;2023-04-07T00:36:42;26.60;;;16.50;;
21876;SDS011;11103;43.788;23.710;2023-04-07T00:39:08;23.90;;;16.37;;
21876;SDS011;11103;43.788;23.710;2023-04-07T00:41:33;23.53;;;14.70;;
21876;SDS011;11103;43.788;23.710;2023-04-07T00:43:59;23.20;;;15.27;;
21876;SDS011;11103;43.788;23.710;2023-04-07T00:46:25;23.77;;;15.77;;
21876;SDS011;11103;43.788;23.710;2023-04-07T00:48:51;24.47;;;15.80;;
21876;SDS011;11103;43.788;23.710;2023-04-07T00:51:18;23.80;;;15.90;;
21876;SDS011;11103;43.788;23.710;2023-04-07T00:53:46;26.77;;;16.10;;
21876;SDS011;11103;43.788;23.710;2023-04-07T00:56:12;25.40;;;16.90;;
21876;SDS011;11103;43.788;23.710;2023-04-07T00:58:37;22.63;;;14.53;;
21876;SDS011;11103;43.788;23.710;2023-04-07T01:03:35;24.33;;;15.27;;
21876;SDS011;11103;43.788;23.710;2023-04-07T01:06:10;22.80;;;15.80;;
21876;SDS011;11103;43.788;23.710;2023-04-07T01:11:29;24.03;;;15.60;;
21876;SDS011;11103;43.788;23.710;2023-04-07T01:14:01;25.40;;;15.10;;
21876;SDS011;11103;43.788;23.710;2023-04-07T01:16:34;21.47;;;15.20;;
21876;SDS011;11103;43.788;23.710;2023-04-07T01:21:41;23.47;;;15.47;;
21876;SDS011;11103;43.788;23.710;2023-04-07T01:26:42;22.43;;;15.63;;
21876;SDS011;11103;43.788;23.710;2023-04-07T01:32:01;24.50;;;15.97;;
21876;SDS011;11103;43.788;23.710;2023-04-07T01:34:30;20.63;;;15.33;;
21876;SDS011;11103;43.788;23.710;2023-04-07T01:36:57;24.63;;;15.83;;
21876;SDS011;11103;43.788;23.710;2023-04-07T01:39:26;32.40;;;21.63;;
21876;SDS011;11103;43.788;23.710;2023-04-07T01:41:51;42.43;;;24.53;;
21876;SDS011;11103;43.788;23.710;2023-04-07T01:44:18;35.97;;;20.97;;
21876;SDS011;11103;43.788;23.710;2023-04-07T01:46:45;22.10;;;16.43;;
21876;SDS011;11103;43.788;23.710;2023-04-07T01:49:11;23.53;;;16.73;;
21876;SDS011;11103;43.788;23.710;2023-04-07T01:51:38;23.10;;;16.17;;
21876;SDS011;11103;43.788;23.710;2023-04-07T01:54:05;26.03;;;16.33;;
21876;SDS011;11103;43.788;23.710;2023-04-07T01:56:32;22.40;;;15.73;;
21876;SDS011;11103;43.788;23.710;2023-04-07T01:58:57;21.50;;;15.70;;
21876;SDS011;11103;43.788;23.710;2023-04-07T02:01:23;22.87;;;15.50;;
21876;SDS011;11103;43.788;23.710;2023-04-07T02:03:53;19.70;;;14.80;;
21876;SDS011;11103;43.788;23.710;2023-04-07T02:06:24;21.53;;;16.13;;
21876;SDS011;11103;43.788;23.710;2023-04-07T02:08:56;22.30;;;16.03;;
21876;SDS011;11103;43.788;23.710;2023-04-07T02:11:26;19.33;;;14.93;;
21876;SDS011;11103;43.788;23.710;2023-04-07T02:13:56;21.10;;;14.53;;
21876;SDS011;11103;43.788;23.710;2023-04-07T02:16:25;19.83;;;14.73;;
21876;SDS011;11103;43.788;23.710;2023-04-07T02:18:53;18.63;;;13.57;;
21876;SDS011;11103;43.788;23.710;2023-04-07T02:21:19;21.33;;;14.97;;
21876;SDS011;11103;43.788;23.710;2023-04-07T02:23:45;18.80;;;14.50;;
21876;SDS011;11103;43.788;23.710;2023-04-07T02:26:10;22.37;;;14.93;;
21876;SDS011;11103;43.788;23.710;2023-04-07T02:28:36;21.03;;;14.63;;
21876;SDS011;11103;43.788;23.710;2023-04-07T02:31:01;20.97;;;15.43;;
21876;SDS011;11103;43.788;23.710;2023-04-07T02:33:27;21.17;;;14.80;;
21876;SDS011;11103;43.788;23.710;2023-04-07T02:35:52;21.97;;;15.63;;
21876;SDS011;11103;43.788;23.710;2023-04-07T02:38:17;22.33;;;15.30;;
21876;SDS011;11103;43.788;23.710;2023-04-07T02:40:43;22.60;;;15.40;;
21876;SDS011;11103;43.788;23.710;2023-04-07T02:43:08;21.93;;;15.20;;
21876;SDS011;11103;43.788;23.710;2023-04-07T02:45:34;21.27;;;14.73;;
21876;SDS011;11103;43.788;23.710;2023-04-07T02:47:59;22.67;;;15.70;;
21876;SDS011;11103;43.788;23.710;2023-04-07T02:50:24;22.37;;;14.63;;
21876;SDS011;11103;43.788;23.710;2023-04-07T02:52:50;23.60;;;15.00;;
21876;SDS011;11103;43.788;23.710;2023-04-07T02:55:15;21.17;;;16.33;;
21876;SDS011;11103;43.788;23.710;2023-04-07T02:57:42;21.77;;;15.40;;
21876;SDS011;11103;43.788;23.710;2023-04-07T03:00:08;21.17;;;14.57;;
21876;SDS011;11103;43.788;23.710;2023-04-07T03:02:34;20.83;;;14.90;;
21876;SDS011;11103;43.788;23.710;2023-04-07T03:04:59;20.37;;;14.63;;
21876;SDS011;11103;43.788;23.710;2023-04-07T03:07:25;20.07;;;13.80;;
21876;SDS011;11103;43.788;23.710;2023-04-07T03:09:51;21.07;;;14.30;;
21876;SDS011;11103;43.788;23.710;2023-04-07T03:12:16;21.10;;;14.23;;
21876;SDS011;11103;43.788;23.710;2023-04-07T03:14:42;18.20;;;13.57;;
21876;SDS011;11103;43.788;23.710;2023-04-07T03:17:07;23.67;;;13.67;;
21876;SDS011;11103;43.788;23.710;2023-04-07T03:19:32;18.80;;;14.17;;
21876;SDS011;11103;43.788;23.710;2023-04-07T03:21:58;22.53;;;13.67;;
21876;SDS011;11103;43.788;23.710;2023-04-07T03:24:23;19.10;;;13.23;;
21876;SDS011;11103;43.788;23.710;2023-04-07T03:26:49;22.43;;;13.70;;
21876;SDS011;11103;43.788;23.710;2023-04-07T03:29:15;18.70;;;13.53;;
21876;SDS011;11103;43.788;23.710;2023-04-07T03:31:41;23.63;;;13.93;;
21876;SDS011;11103;43.788;23.710;2023-04-07T03:34:07;22.10;;;14.87;;
21876;SDS011;11103;43.788;23.710;2023-04-07T03:36:32;21.57;;;13.93;;
21876;SDS011;11103;43.788;23.710;2023-04-07T03:38:57;25.57;;;13.53;;
21876;SDS011;11103;43.788;23.710;2023-04-07T03:41:23;28.20;;;17.67;;
21876;SDS011;11103;43.788;23.710;2023-04-07T03:43:49;25.00;;;15.93;;
21876;SDS011;11103;43.788;23.710;2023-04-07T03:46:14;22.13;;;15.13;;
21876;SDS011;11103;43.788;23.710;2023-04-07T03:48:40;24.13;;;14.47;;
21876;SDS011;11103;43.788;23.710;2023-04-07T03:51:05;21.20;;;15.50;;
21876;SDS011;11103;43.788;23.710;2023-04-07T03:53:31;26.00;;;15.57;;
21876;SDS011;11103;43.788;23.710;2023-04-07T03:55:57;23.63;;;15.63;;
21876;SDS011;11103;43.788;23.710;2023-04-07T03:58:22;23.07;;;16.07;;
21876;SDS011;11103;43.788;23.710;2023-04-07T04:00:48;23.33;;;16.10;;
21876;SDS011;11103;43.788;23.710;2023-04-07T04:03:13;24.17;;;16.20;;
21876;SDS011;11103;43.788;23.710;2023-04-07T04:05:39;23.47;;;15.27;;
21876;SDS011;11103;43.788;23.710;2023-04-07T04:08:05;22.20;;;15.53;;
21876;SDS011;11103;43.788;23.710;2023-04-07T04:10:30;24.17;;;17.10;;
21876;SDS011;11103;43.788;23.710;2023-04-07T04:12:56;22.57;;;15.67;;
21876;SDS011;11103;43.788;23.710;2023-04-07T04:15:24;25.97;;;17.37;;
21876;SDS011;11103;43.788;23.710;2023-04-07T04:17:50;24.47;;;16.77;;
21876;SDS011;11103;43.788;23.710;2023-04-07T04:20:15;22.53;;;16.23;;
21876;SDS011;11103;43.788;23.710;2023-04-07T04:22:40;26.20;;;16.50;;
21876;SDS011;11103;43.788;23.710;2023-04-07T04:25:06;26.10;;;17.27;;
21876;SDS011;11103;43.788;23.710;2023-04-07T04:27:32;26.63;;;16.27;;
21876;SDS011;11103;43.788;23.710;2023-04-07T04:29:57;24.70;;;16.43;;
21876;SDS011;11103;43.788;23.710;2023-04-07T04:32:22;28.40;;;18.00;;
21876;SDS011;11103;43.788;23.710;2023-04-07T04:34:48;30.57;;;18.47;;
21876;SDS011;11103;43.788;23.710;2023-04-07T04:37:13;38.83;;;21.57;;
21876;SDS011;11103;43.788;23.710;2023-04-07T04:39:39;29.37;;;16.70;;
21876;SDS011;11103;43.788;23.710;2023-04-07T04:42:04;30.40;;;17.27;;
21876;SDS011;11103;43.788;23.710;2023-04-07T04:44:30;34.17;;;18.03;;
21876;SDS011;11103;43.788;23.710;2023-04-07T04:46:55;26.83;;;16.40;;
21876;SDS011;11103;43.788;23.710;2023-04-07T04:49:21;24.30;;;15.97;;
21876;SDS011;11103;43.788;23.710;2023-04-07T04:51:46;33.03;;;17.93;;
21876;SDS011;11103;43.788;23.710;2023-04-07T04:54:12;23.90;;;15.80;;
21876;SDS011;11103;43.788;23.710;2023-04-07T04:56:38;25.43;;;16.43;;
21876;SDS011;11103;43.788;23.710;2023-04-07T04:59:03;26.17;;;15.90;;
21876;SDS011;11103;43.788;23.710;2023-04-07T05:01:29;27.93;;;17.50;;
21876;SDS011;11103;43.788;23.710;2023-04-07T05:03:55;25.83;;;15.37;;
21876;SDS011;11103;43.788;23.710;2023-04-07T05:06:20;21.70;;;15.07;;
21876;SDS011;11103;43.788;23.710;2023-04-07T05:08:45;27.90;;;17.40;;
21876;SDS011;11103;43.788;23.710;2023-04-07T05:11:11;22.23;;;15.50;;
21876;SDS011;11103;43.788;23.710;2023-04-07T05:13:37;21.30;;;15.20;;
21876;SDS011;11103;43.788;23.710;2023-04-07T05:16:02;22.07;;;14.80;;
21876;SDS011;11103;43.788;23.710;2023-04-07T05:18:28;20.50;;;13.97;;
21876;SDS011;11103;43.788;23.710;2023-04-07T05:20:53;21.60;;;13.97;;
21876;SDS011;11103;43.788;23.710;2023-04-07T05:23:19;23.80;;;15.37;;
21876;SDS011;11103;43.788;23.710;2023-04-07T05:25:44;19.80;;;14.50;;
21876;SDS011;11103;43.788;23.710;2023-04-07T05:28:10;21.70;;;14.67;;
21876;SDS011;11103;43.788;23.710;2023-04-07T05:30:35;19.53;;;14.67;;
21876;SDS011;11103;43.788;23.710;2023-04-07T05:33:01;19.87;;;13.87;;
21876;SDS011;11103;43.788;23.710;2023-04-07T05:35:26;23.27;;;15.50;;
21876;SDS011;11103;43.788;23.710;2023-04-07T05:37:51;23.87;;;14.73;;
21876;SDS011;11103;43.788;23.710;2023-04-07T05:40:17;19.20;;;13.47;;
21876;SDS011;11103;43.788;23.710;2023-04-07T05:42:43;18.60;;;13.97;;
21876;SDS011;11103;43.788;23.710;2023-04-07T05:45:08;19.90;;;13.40;;
21876;SDS011;11103;43.788;23.710;2023-04-07T05:47:34;18.43;;;14.17;;
21876;SDS011;11103;43.788;23.710;2023-04-07T05:50:00;20.43;;;14.67;;
21876;SDS011;11103;43.788;23.710;2023-04-07T05:52:25;19.70;;;14.73;;
21876;SDS011;11103;43.788;23.710;2023-04-07T05:54:51;23.10;;;13.90;;
21876;SDS011;11103;43.788;23.710;2023-04-07T05:57:16;18.93;;;13.80;;
21876;SDS011;11103;43.788;23.710;2023-04-07T05:59:41;21.57;;;13.33;;
21876;SDS011;11103;43.788;23.710;2023-04-07T06:02:07;20.80;;;13.47;;
21876;SDS011;11103;43.788;23.710;2023-04-07T06:04:32;19.43;;;14.00;;
21876;SDS011;11103;43.788;23.710;2023-04-07T06:06:59;17.60;;;13.30;;
21876;SDS011;11103;43.788;23.710;2023-04-07T06:09:25;23.87;;;15.27;;
21876;SDS011;11103;43.788;23.710;2023-04-07T06:11:51;19.93;;;13.70;;
21876;SDS011;11103;43.788;23.710;2023-04-07T06:14:16;21.50;;;14.67;;
21876;SDS011;11103;43.788;23.710;2023-04-07T06:16:42;22.57;;;14.73;;
21876;SDS011;11103;43.788;23.710;2023-04-07T06:19:08;18.50;;;14.20;;
21876;SDS011;11103;43.788;23.710;2023-04-07T06:21:33;20.37;;;13.83;;
21876;SDS011;11103;43.788;23.710;2023-04-07T06:23:59;28.63;;;19.80;;
21876;SDS011;11103;43.788;23.710;2023-04-07T06:26:25;54.70;;;32.30;;
21876;SDS011;11103;43.788;23.710;2023-04-07T06:28:51;53.90;;;29.07;;
21876;SDS011;11103;43.788;23.710;2023-04-07T06:31:16;75.73;;;39.90;;
21876;SDS011;11103;43.788;23.710;2023-04-07T06:33:42;27.87;;;17.20;;
21876;SDS011;11103;43.788;23.710;2023-04-07T06:36:08;19.63;;;14.80;;
21876;SDS011;11103;43.788;23.710;2023-04-07T06:38:34;25.87;;;16.17;;
21876;SDS011;11103;43.788;23.710;2023-04-07T06:41:00;22.93;;;15.90;;
21876;SDS011;11103;43.788;23.710;2023-04-07T06:43:25;25.90;;;16.33;;
21876;SDS011;11103;43.788;23.710;2023-04-07T06:45:51;28.03;;;17.37;;
21876;SDS011;11103;43.788;23.710;2023-04-07T06:48:16;25.60;;;16.33;;
21876;SDS011;11103;43.788;23.710;2023-04-07T06:50:44;21.43;;;15.60;;
21876;SDS011;11103;43.788;23.710;2023-04-07T06:53:11;26.20;;;16.07;;
21876;SDS011;11103;43.788;23.710;2023-04-07T06:55:36;23.80;;;15.93;;
21876;SDS011;11103;43.788;23.710;2023-04-07T06:58:02;27.67;;;17.67;;
21876;SDS011;11103;43.788;23.710;2023-04-07T07:00:27;24.07;;;16.83;;
21876;SDS011;11103;43.788;23.710;2023-04-07T07:02:54;26.60;;;17.47;;
21876;SDS011;11103;43.788;23.710;2023-04-07T07:05:20;24.30;;;15.97;;
21876;SDS011;11103;43.788;23.710;2023-04-07T07:07:47;21.63;;;15.70;;
21876;SDS011;11103;43.788;23.710;2023-04-07T07:10:13;22.60;;;15.53;;
21876;SDS011;11103;43.788;23.710;2023-04-07T07:12:38;22.83;;;15.90;;
21876;SDS011;11103;43.788;23.710;2023-04-07T07:15:04;27.80;;;17.40;;
21876;SDS011;11103;43.788;23.710;2023-04-07T07:17:30;22.87;;;16.27;;
21876;SDS011;11103;43.788;23.710;2023-04-07T07:19:55;21.93;;;15.73;;
21876;SDS011;11103;43.788;23.710;2023-04-07T07:22:21;20.90;;;15.67;;
21876;SDS011;11103;43.788;23.710;2023-04-07T07:24:46;30.20;;;17.97;;
21876;SDS011;11103;43.788;23.710;2023-04-07T07:27:12;26.97;;;17.80;;
21876;SDS011;11103;43.788;23.710;2023-04-07T07:29:37;30.77;;;18.47;;
21876;SDS011;11103;43.788;23.710;2023-04-07T07:32:02;27.40;;;16.80;;
21876;SDS011;11103;43.788;23.710;2023-04-07T07:34:28;25.43;;;16.93;;
21876;SDS011;11103;43.788;23.710;2023-04-07T07:36:53;26.60;;;15.97;;
21876;SDS011;11103;43.788;23.710;2023-04-07T07:39:19;21.97;;;15.87;;
21876;SDS011;11103;43.788;23.710;2023-04-07T07:41:44;25.77;;;16.37;;
21876;SDS011;11103;43.788;23.710;2023-04-07T07:44:10;24.47;;;16.00;;
21876;SDS011;11103;43.788;23.710;2023-04-07T07:46:36;32.57;;;17.73;;
21876;SDS011;11103;43.788;23.710;2023-04-07T07:49:01;33.73;;;19.90;;
21876;SDS011;11103;43.788;23.710;2023-04-07T07:51:29;33.77;;;19.13;;
21876;SDS011;11103;43.788;23.710;2023-04-07T07:53:54;28.13;;;17.93;;
21876;SDS011;11103;43.788;23.710;2023-04-07T07:56:20;25.63;;;18.33;;
21876;SDS011;11103;43.788;23.710;2023-04-07T07:58:45;29.20;;;19.13;;
21876;SDS011;11103;43.788;23.710;2023-04-07T08:01:11;37.53;;;20.20;;
21876;SDS011;11103;43.788;23.710;2023-04-07T08:03:36;76.83;;;49.37;;
21876;SDS011;11103;43.788;23.710;2023-04-07T08:06:02;40.23;;;24.37;;
21876;SDS011;11103;43.788;23.710;2023-04-07T08:08:27;23.43;;;16.67;;
21876;SDS011;11103;43.788;23.710;2023-04-07T08:10:53;24.40;;;17.73;;
21876;SDS011;11103;43.788;23.710;2023-04-07T08:13:18;29.67;;;20.43;;
21876;SDS011;11103;43.788;23.710;2023-04-07T08:15:44;30.63;;;19.83;;
21876;SDS011;11103;43.788;23.710;2023-04-07T08:18:09;29.73;;;20.13;;
21876;SDS011;11103;43.788;23.710;2023-04-07T08:20:35;25.93;;;18.03;;
21876;SDS011;11103;43.788;23.710;2023-04-07T08:23:00;27.30;;;19.07;;
21876;SDS011;11103;43.788;23.710;2023-04-07T08:25:26;28.93;;;18.80;;
21876;SDS011;11103;43.788;23.710;2023-04-07T08:27:52;41.83;;;25.03;;
21876;SDS011;11103;43.788;23.710;2023-04-07T08:30:18;73.53;;;33.17;;
21876;SDS011;11103;43.788;23.710;2023-04-07T08:32:45;60.87;;;28.00;;
21876;SDS011;11103;43.788;23.710;2023-04-07T08:35:11;28.87;;;18.20;;
21876;SDS011;11103;43.788;23.710;2023-04-07T08:37:36;38.33;;;21.97;;
21876;SDS011;11103;43.788;23.710;2023-04-07T08:40:02;47.70;;;26.53;;
21876;SDS011;11103;43.788;23.710;2023-04-07T08:42:29;35.43;;;21.67;;
21876;SDS011;11103;43.788;23.710;2023-04-07T08:44:57;43.27;;;22.43;;
21876;SDS011;11103;43.788;23.710;2023-04-07T08:47:29;30.70;;;18.70;;
21876;SDS011;11103;43.788;23.710;2023-04-07T08:49:59;28.33;;;18.00;;
21876;SDS011;11103;43.788;23.710;2023-04-07T08:52:34;35.60;;;21.67;;
21876;SDS011;11103;43.788;23.710;2023-04-07T08:55:07;35.00;;;20.57;;
21876;SDS011;11103;43.788;23.710;2023-04-07T08:57:33;37.37;;;22.60;;
21876;SDS011;11103;43.788;23.710;2023-04-07T08:59:59;30.00;;;20.20;;
21876;SDS011;11103;43.788;23.710;2023-04-07T09:02:42;28.03;;;19.30;;
21876;SDS011;11103;43.788;23.710;2023-04-07T09:05:09;26.37;;;17.50;;
21876;SDS011;11103;43.788;23.710;2023-04-07T09:07:36;28.17;;;17.93;;
21876;SDS011;11103;43.788;23.710;2023-04-07T09:10:04;23.97;;;15.57;;
21876;SDS011;11103;43.788;23.710;2023-04-07T09:12:30;28.73;;;18.87;;
21876;SDS011;11103;43.788;23.710;2023-04-07T09:14:56;26.20;;;17.00;;
21876;SDS011;11103;43.788;23.710;2023-04-07T09:17:24;21.53;;;15.43;;
21876;SDS011;11103;43.788;23.710;2023-04-07T09:19:51;22.67;;;16.50;;
21876;SDS011;11103;43.788;23.710;2023-04-07T09:27:38;24.53;;;16.30;;
21876;SDS011;11103;43.788;23.710;2023-04-07T09:30:11;29.53;;;19.97;;
21876;SDS011;11103;43.788;23.710;2023-04-07T09:32:38;24.37;;;17.77;;
21876;SDS011;11103;43.788;23.710;2023-04-07T09:35:05;21.17;;;14.63;;
21876;SDS011;11103;43.788;23.710;2023-04-07T09:37:31;21.90;;;14.53;;
21876;SDS011;11103;43.788;23.710;2023-04-07T09:39:56;21.57;;;16.13;;
21876;SDS011;11103;43.788;23.710;2023-04-07T09:42:22;23.10;;;16.03;;
21876;SDS011;11103;43.788;23.710;2023-04-07T09:44:47;18.73;;;14.90;;
21876;SDS011;11103;43.788;23.710;2023-04-07T09:47:13;18.57;;;15.00;;
21876;SDS011;11103;43.788;23.710;2023-04-07T09:49:51;23.27;;;16.17;;
21876;SDS011;11103;43.788;23.710;2023-04-07T09:52:18;19.80;;;15.00;;
21876;SDS011;11103;43.788;23.710;2023-04-07T09:54:47;18.73;;;14.87;;
21876;SDS011;11103;43.788;23.710;2023-04-07T09:57:13;21.67;;;16.83;;
21876;SDS011;11103;43.788;23.710;2023-04-07T09:59:41;21.57;;;16.53;;
21876;SDS011;11103;43.788;23.710;2023-04-07T10:02:08;22.67;;;16.10;;
21876;SDS011;11103;43.788;23.710;2023-04-07T10:04:35;22.30;;;17.13;;
21876;SDS011;11103;43.788;23.710;2023-04-07T10:07:01;20.97;;;16.60;;
21876;SDS011;11103;43.788;23.710;2023-04-07T10:09:27;22.17;;;16.03;;
21876;SDS011;11103;43.788;23.710;2023-04-07T10:11:54;19.53;;;15.50;;
21876;SDS011;11103;43.788;23.710;2023-04-07T10:14:22;21.53;;;15.50;;
21876;SDS011;11103;43.788;23.710;2023-04-07T10:16:52;21.30;;;15.90;;
21876;SDS011;11103;43.788;23.710;2023-04-07T10:19:19;20.33;;;15.37;;
21876;SDS011;11103;43.788;23.710;2023-04-07T10:21:45;19.53;;;14.70;;
21876;SDS011;11103;43.788;23.710;2023-04-07T10:27:13;18.60;;;14.57;;
21876;SDS011;11103;43.788;23.710;2023-04-07T10:29:42;20.07;;;13.70;;
21876;SDS011;11103;43.788;23.710;2023-04-07T10:32:11;19.07;;;13.70;;
21876;SDS011;11103;43.788;23.710;2023-04-07T10:37:14;21.40;;;12.43;;
21876;SDS011;11103;43.788;23.710;2023-04-07T10:39:47;16.67;;;12.87;;
21876;SDS011;11103;43.788;23.710;2023-04-07T10:45:01;17.07;;;11.80;;
21876;SDS011;11103;43.788;23.710;2023-04-07T10:47:27;14.67;;;12.27;;
21876;SDS011;11103;43.788;23.710;2023-04-07T10:52:36;14.63;;;10.63;;
21876;SDS011;11103;43.788;23.710;2023-04-07T11:03:24;14.43;;;11.27;;
21876;SDS011;11103;43.788;23.710;2023-04-07T11:05:49;15.63;;;12.60;;
21876;SDS011;11103;43.788;23.710;2023-04-07T11:08:15;17.43;;;12.03;;
21876;SDS011;11103;43.788;23.710;2023-04-07T11:10:57;14.87;;;11.73;;
21876;SDS011;11103;43.788;23.710;2023-04-07T11:13:22;15.47;;;12.43;;
21876;SDS011;11103;43.788;23.710;2023-04-07T11:15:48;12.67;;;10.17;;
21876;SDS011;11103;43.788;23.710;2023-04-07T11:18:18;14.70;;;10.13;;
21876;SDS011;11103;43.788;23.710;2023-04-07T11:20:50;12.07;;;9.30;;
21876;SDS011;11103;43.788;23.710;2023-04-07T11:23:17;12.97;;;10.27;;
21876;SDS011;11103;43.788;23.710;2023-04-07T11:25:44;12.03;;;10.13;;
21876;SDS011;11103;43.788;23.710;2023-04-07T11:28:11;11.83;;;10.47;;
21876;SDS011;11103;43.788;23.710;2023-04-07T11:30:38;11.00;;;9.80;;
21876;SDS011;11103;43.788;23.710;2023-04-07T11:33:08;12.07;;;10.30;;
21876;SDS011;11103;43.788;23.710;2023-04-07T11:35:34;14.40;;;10.70;;
21876;SDS011;11103;43.788;23.710;2023-04-07T11:37:59;11.70;;;9.67;;
21876;SDS011;11103;43.788;23.710;2023-04-07T11:40:34;11.87;;;9.93;;
21876;SDS011;11103;43.788;23.710;2023-04-07T11:43:01;10.53;;;9.13;;
21876;SDS011;11103;43.788;23.710;2023-04-07T11:45:39;13.23;;;10.50;;
21876;SDS011;11103;43.788;23.710;2023-04-07T11:48:04;14.23;;;10.87;;
21876;SDS011;11103;43.788;23.710;2023-04-07T11:50:49;14.43;;;11.07;;
21876;SDS011;11103;43.788;23.710;2023-04-07T11:53:23;13.83;;;10.60;;
21876;SDS011;11103;43.788;23.710;2023-04-07T11:55:57;14.23;;;11.27;;
21876;SDS011;11103;43.788;23.710;2023-04-07T11:58:30;12.53;;;10.70;;
21876;SDS011;11103;43.788;23.710;2023-04-07T12:00:57;14.00;;;10.50;;
21876;SDS011;11103;43.788;23.710;2023-04-07T12:03:27;15.53;;;10.57;;
21876;SDS011;11103;43.788;23.710;2023-04-07T12:05:53;13.33;;;10.43;;
21876;SDS011;11103;43.788;23.710;2023-04-07T12:08:19;13.63;;;10.50;;
21876;SDS011;11103;43.788;23.710;2023-04-07T12:10:45;16.43;;;11.50;;
21876;SDS011;11103;43.788;23.710;2023-04-07T12:13:11;28.27;;;19.57;;
21876;SDS011;11103;43.788;23.710;2023-04-07T12:15:37;49.90;;;31.30;;
21876;SDS011;11103;43.788;23.710;2023-04-07T12:18:02;23.23;;;16.33;;
21876;SDS011;11103;43.788;23.710;2023-04-07T12:20:28;20.67;;;12.60;;
21876;SDS011;11103;43.788;23.710;2023-04-07T12:22:54;14.87;;;11.07;;
21876;SDS011;11103;43.788;23.710;2023-04-07T12:25:20;15.50;;;10.87;;
21876;SDS011;11103;43.788;23.710;2023-04-07T12:27:45;15.63;;;11.73;;
21876;SDS011;11103;43.788;23.710;2023-04-07T12:30:11;13.83;;;10.80;;
21876;SDS011;11103;43.788;23.710;2023-04-07T12:32:37;16.33;;;11.43;;
21876;SDS011;11103;43.788;23.710;2023-04-07T12:35:03;18.27;;;12.07;;
21876;SDS011;11103;43.788;23.710;2023-04-07T12:37:29;17.63;;;11.23;;
21876;SDS011;11103;43.788;23.710;2023-04-07T12:39:55;17.77;;;11.73;;
21876;SDS011;11103;43.788;23.710;2023-04-07T12:42:21;18.03;;;11.53;;
21876;SDS011;11103;43.788;23.710;2023-04-07T12:44:46;17.80;;;12.27;;
21876;SDS011;11103;43.788;23.710;2023-04-07T12:47:11;18.80;;;12.50;;
21876;SDS011;11103;43.788;23.710;2023-04-07T12:49:37;21.10;;;12.90;;
21876;SDS011;11103;43.788;23.710;2023-04-07T12:52:02;20.80;;;13.90;;
21876;SDS011;11103;43.788;23.710;2023-04-07T12:54:28;17.07;;;12.67;;
21876;SDS011;11103;43.788;23.710;2023-04-07T12:56:54;15.77;;;11.83;;
21876;SDS011;11103;43.788;23.710;2023-04-07T12:59:21;19.83;;;12.97;;
21876;SDS011;11103;43.788;23.710;2023-04-07T13:01:48;19.67;;;14.27;;
21876;SDS011;11103;43.788;23.710;2023-04-07T13:04:13;18.30;;;13.90;;
21876;SDS011;11103;43.788;23.710;2023-04-07T13:06:39;21.10;;;13.90;;
21876;SDS011;11103;43.788;23.710;2023-04-07T13:09:04;21.07;;;13.73;;
21876;SDS011;11103;43.788;23.710;2023-04-07T13:11:29;20.30;;;13.50;;
21876;SDS011;11103;43.788;23.710;2023-04-07T13:13:55;17.63;;;13.17;;
21876;SDS011;11103;43.788;23.710;2023-04-07T13:16:20;18.57;;;13.53;;
21876;SDS011;11103;43.788;23.710;2023-04-07T13:18:46;19.77;;;13.50;;
21876;SDS011;11103;43.788;23.710;2023-04-07T13:21:11;18.37;;;13.67;;
21876;SDS011;11103;43.788;23.710;2023-04-07T13:23:37;21.07;;;14.33;;
21876;SDS011;11103;43.788;23.710;2023-04-07T13:26:02;20.47;;;14.53;;
21876;SDS011;11103;43.788;23.710;2023-04-07T13:28:28;22.97;;;15.17;;
21876;SDS011;11103;43.788;23.710;2023-04-07T13:30:53;23.70;;;16.30;;
21876;SDS011;11103;43.788;23.710;2023-04-07T13:33:18;25.57;;;16.20;;
21876;SDS011;11103;43.788;23.710;2023-04-07T13:35:44;29.67;;;17.43;;
21876;SDS011;11103;43.788;23.710;2023-04-07T13:38:09;24.00;;;17.67;;
21876;SDS011;11103;43.788;23.710;2023-04-07T13:40:35;81.37;;;39.77;;
21876;SDS011;11103;43.788;23.710;2023-04-07T13:43:01;47.10;;;28.33;;
21876;SDS011;11103;43.788;23.710;2023-04-07T13:45:26;43.83;;;26.27;;
21876;SDS011;11103;43.788;23.710;2023-04-07T13:47:52;22.60;;;16.30;;
21876;SDS011;11103;43.788;23.710;2023-04-07T13:50:17;22.53;;;16.10;;
21876;SDS011;11103;43.788;23.710;2023-04-07T13:52:43;38.33;;;22.70;;
21876;SDS011;11103;43.788;23.710;2023-04-07T13:55:08;44.27;;;26.60;;
21876;SDS011;11103;43.788;23.710;2023-04-07T13:57:34;26.37;;;17.57;;
21876;SDS011;11103;43.788;23.710;2023-04-07T14:00:00;72.03;;;43.93;;
21876;SDS011;11103;43.788;23.710;2023-04-07T14:02:25;166.60;;;94.07;;
21876;SDS011;11103;43.788;23.710;2023-04-07T14:04:54;36.83;;;23.23;;
21876;SDS011;11103;43.788;23.710;2023-04-07T14:07:20;34.47;;;22.23;;
21876;SDS011;11103;43.788;23.710;2023-04-07T14:09:47;34.43;;;23.13;;
21876;SDS011;11103;43.788;23.710;2023-04-07T14:12:12;30.87;;;20.07;;
21876;SDS011;11103;43.788;23.710;2023-04-07T14:14:38;67.17;;;34.53;;
21876;SDS011;11103;43.788;23.710;2023-04-07T14:17:04;44.50;;;26.47;;
21876;SDS011;11103;43.788;23.710;2023-04-07T14:19:30;34.13;;;20.80;;
21876;SDS011;11103;43.788;23.710;2023-04-07T14:21:57;36.30;;;23.23;;
21876;SDS011;11103;43.788;23.710;2023-04-07T14:24:22;93.93;;;64.37;;
21876;SDS011;11103;43.788;23.710;2023-04-07T14:26:48;62.17;;;38.67;;
21876;SDS011;11103;43.788;23.710;2023-04-07T14:29:15;82.20;;;46.33;;
21876;SDS011;11103;43.788;23.710;2023-04-07T14:31:40;89.87;;;50.67;;
21876;SDS011;11103;43.788;23.710;2023-04-07T14:34:06;101.97;;;63.47;;
21876;SDS011;11103;43.788;23.710;2023-04-07T14:36:32;95.17;;;57.47;;
21876;SDS011;11103;43.788;23.710;2023-04-07T14:39:00;58.63;;;36.47;;
21876;SDS011;11103;43.788;23.710;2023-04-07T14:41:26;107.77;;;62.47;;